sensor_id;sensor_type;location;lat;lon;timestamp;temperature;humidity
15625;DHT22;7912;51.376;6.126;2023-03-08T00:01:33;4.80;99.90
15625;DHT22;7912;51.376;6.126;2023-03-08T00:04:00;4.80;99.90
15625;DHT22;7912;51.376;6.126;2023-03-08T00:06:28;4.80;99.90
15625;DHT22;7912;51.376;6.126;2023-03-08T00:08:57;4.80;99.90
15625;DHT22;7912;51.376;6.126;2023-03-08T00:11:28;4.80;99.90
15625;DHT22;7912;51.376;6.126;2023-03-08T00:13:56;4.80;99.90
15625;DHT22;7912;51.376;6.126;2023-03-08T00:16:24;4.80;99.90
15625;DHT22;7912;51.376;6.126;2023-03-08T00:18:51;4.80;99.90
15625;DHT22;7912;51.376;6.126;2023-03-08T00:21:18;4.80;99.90
15625;DHT22;7912;51.376;6.126;2023-03-08T00:23:46;4.80;99.90
15625;DHT22;7912;51.376;6.126;2023-03-08T00:26:14;4.80;99.90
15625;DHT22;7912;51.376;6.126;2023-03-08T00:28:41;4.80;99.90
15625;DHT22;7912;51.376;6.126;2023-03-08T00:31:11;4.80;99.90
15625;DHT22;7912;51.376;6.126;2023-03-08T00:33:39;4.80;99.90
15625;DHT22;7912;51.376;6.126;2023-03-08T00:36:13;4.90;99.90
15625;DHT22;7912;51.376;6.126;2023-03-08T00:38:43;4.80;99.90
15625;DHT22;7912;51.376;6.126;2023-03-08T00:41:11;4.90;99.90
15625;DHT22;7912;51.376;6.126;2023-03-08T00:43:38;4.90;99.90
15625;DHT22;7912;51.376;6.126;2023-03-08T00:46:08;4.90;99.90
15625;DHT22;7912;51.376;6.126;2023-03-08T00:48:36;4.80;99.90
15625;DHT22;7912;51.376;6.126;2023-03-08T00:51:03;4.80;99.90
15625;DHT22;7912;51.376;6.126;2023-03-08T00:53:30;4.80;99.90
15625;DHT22;7912;51.376;6.126;2023-03-08T00:55:58;4.80;99.90
15625;DHT22;7912;51.376;6.126;2023-03-08T00:58:28;4.80;99.90
15625;DHT22;7912;51.376;6.126;2023-03-08T01:00:57;4.80;99.90
15625;DHT22;7912;51.376;6.126;2023-03-08T01:03:25;4.90;99.90
15625;DHT22;7912;51.376;6.126;2023-03-08T01:05:54;4.90;99.90
15625;DHT22;7912;51.376;6.126;2023-03-08T01:08:23;4.90;99.90
15625;DHT22;7912;51.376;6.126;2023-03-08T01:10:57;4.80;99.90
15625;DHT22;7912;51.376;6.126;2023-03-08T01:13:31;4.90;99.90
15625;DHT22;7912;51.376;6.126;2023-03-08T01:16:01;4.80;99.90
15625;DHT22;7912;51.376;6.126;2023-03-08T01:18:28;4.80;99.90
15625;DHT22;7912;51.376;6.126;2023-03-08T01:20:58;4.80;99.90
15625;DHT22;7912;51.376;6.126;2023-03-08T01:23:27;4.90;99.90
15625;DHT22;7912;51.376;6.126;2023-03-08T01:26:00;4.80;99.90
15625;DHT22;7912;51.376;6.126;2023-03-08T01:28:28;4.80;99.90
15625;DHT22;7912;51.376;6.126;2023-03-08T01:31:08;4.90;99.90
15625;DHT22;7912;51.376;6.126;2023-03-08T01:33:37;4.80;99.90
15625;DHT22;7912;51.376;6.126;2023-03-08T01:36:06;4.80;99.90
15625;DHT22;7912;51.376;6.126;2023-03-08T01:38:35;4.90;99.90
15625;DHT22;7912;51.376;6.126;2023-03-08T01:41:04;4.90;99.90
15625;DHT22;7912;51.376;6.126;2023-03-08T01:43:37;4.90;99.90
15625;DHT22;7912;51.376;6.126;2023-03-08T01:46:28;4.90;99.90
15625;DHT22;7912;51.376;6.126;2023-03-08T01:49:15;4.90;99.90
15625;DHT22;7912;51.376;6.126;2023-03-08T01:52:02;4.90;99.90
15625;DHT22;7912;51.376;6.126;2023-03-08T01:57:10;4.90;99.90
15625;DHT22;7912;51.376;6.126;2023-03-08T02:00:12;4.90;99.90
15625;DHT22;7912;51.376;6.126;2023-03-08T02:02:51;5.00;99.90
15625;DHT22;7912;51.376;6.126;2023-03-08T02:05:52;5.00;99.90
15625;DHT22;7912;51.376;6.126;2023-03-08T02:08:20;5.00;99.90
15625;DHT22;7912;51.376;6.126;2023-03-08T02:10:47;5.00;99.90
15625;DHT22;7912;51.376;6.126;2023-03-08T02:13:19;5.00;99.90
15625;DHT22;7912;51.376;6.126;2023-03-08T02:15:48;5.00;99.90
15625;DHT22;7912;51.376;6.126;2023-03-08T02:18:16;5.00;99.90
15625;DHT22;7912;51.376;6.126;2023-03-08T02:20:43;5.00;99.90
15625;DHT22;7912;51.376;6.126;2023-03-08T02:23:19;5.00;99.90
15625;DHT22;7912;51.376;6.126;2023-03-08T02:28:23;5.00;99.90
15625;DHT22;7912;51.376;6.126;2023-03-08T02:30:53;5.00;99.90
15625;DHT22;7912;51.376;6.126;2023-03-08T02:33:21;5.00;99.90
15625;DHT22;7912;51.376;6.126;2023-03-08T02:35:50;5.00;99.90
15625;DHT22;7912;51.376;6.126;2023-03-08T02:38:19;5.10;99.90
15625;DHT22;7912;51.376;6.126;2023-03-08T02:40:47;5.00;99.90
15625;DHT22;7912;51.376;6.126;2023-03-08T02:43:17;5.10;99.90
15625;DHT22;7912;51.376;6.126;2023-03-08T02:45:45;5.00;99.90
15625;DHT22;7912;51.376;6.126;2023-03-08T02:48:15;5.10;99.90
15625;DHT22;7912;51.376;6.126;2023-03-08T02:50:42;5.10;99.90
15625;DHT22;7912;51.376;6.126;2023-03-08T02:53:10;5.10;99.90
15625;DHT22;7912;51.376;6.126;2023-03-08T02:55:38;5.10;99.90
15625;DHT22;7912;51.376;6.126;2023-03-08T02:58:07;5.10;99.90
15625;DHT22;7912;51.376;6.126;2023-03-08T03:00:36;5.00;99.90
15625;DHT22;7912;51.376;6.126;2023-03-08T03:03:04;5.00;99.90
15625;DHT22;7912;51.376;6.126;2023-03-08T03:05:31;5.00;99.90
15625;DHT22;7912;51.376;6.126;2023-03-08T03:07:59;5.00;99.90
15625;DHT22;7912;51.376;6.126;2023-03-08T03:10:27;5.00;99.90
15625;DHT22;7912;51.376;6.126;2023-03-08T03:12:54;5.00;99.90
15625;DHT22;7912;51.376;6.126;2023-03-08T03:15:22;5.00;99.90
15625;DHT22;7912;51.376;6.126;2023-03-08T03:17:49;5.00;99.90
15625;DHT22;7912;51.376;6.126;2023-03-08T03:20:17;5.00;99.90
15625;DHT22;7912;51.376;6.126;2023-03-08T03:22:44;5.00;99.90
15625;DHT22;7912;51.376;6.126;2023-03-08T03:25:12;5.00;99.90
15625;DHT22;7912;51.376;6.126;2023-03-08T03:27:40;5.00;99.90
15625;DHT22;7912;51.376;6.126;2023-03-08T03:30:08;5.00;99.90
15625;DHT22;7912;51.376;6.126;2023-03-08T03:32:36;4.90;99.90
15625;DHT22;7912;51.376;6.126;2023-03-08T03:35:03;4.90;99.90
15625;DHT22;7912;51.376;6.126;2023-03-08T03:37:33;4.90;99.90
15625;DHT22;7912;51.376;6.126;2023-03-08T03:40:03;4.90;99.90
15625;DHT22;7912;51.376;6.126;2023-03-08T03:42:31;4.90;99.90
15625;DHT22;7912;51.376;6.126;2023-03-08T03:44:58;4.90;99.90
15625;DHT22;7912;51.376;6.126;2023-03-08T03:47:25;4.90;99.90
15625;DHT22;7912;51.376;6.126;2023-03-08T03:49:53;4.80;99.90
15625;DHT22;7912;51.376;6.126;2023-03-08T03:52:20;4.90;99.90
15625;DHT22;7912;51.376;6.126;2023-03-08T03:54:47;4.80;99.90
15625;DHT22;7912;51.376;6.126;2023-03-08T03:57:14;4.90;99.90
15625;DHT22;7912;51.376;6.126;2023-03-08T03:59:42;4.80;99.90
15625;DHT22;7912;51.376;6.126;2023-03-08T04:02:09;4.80;99.90
15625;DHT22;7912;51.376;6.126;2023-03-08T04:04:37;4.80;99.90
15625;DHT22;7912;51.376;6.126;2023-03-08T04:07:04;4.80;99.90
15625;DHT22;7912;51.376;6.126;2023-03-08T04:09:31;4.80;99.90
15625;DHT22;7912;51.376;6.126;2023-03-08T04:11:58;4.70;99.90
15625;DHT22;7912;51.376;6.126;2023-03-08T04:14:28;4.70;99.90
15625;DHT22;7912;51.376;6.126;2023-03-08T04:16:55;4.70;99.90
15625;DHT22;7912;51.376;6.126;2023-03-08T04:19:22;4.70;99.90
15625;DHT22;7912;51.376;6.126;2023-03-08T04:21:50;4.70;99.90
15625;DHT22;7912;51.376;6.126;2023-03-08T04:24:17;4.70;99.90
15625;DHT22;7912;51.376;6.126;2023-03-08T04:26:44;4.70;99.90
15625;DHT22;7912;51.376;6.126;2023-03-08T04:29:11;4.70;99.90
15625;DHT22;7912;51.376;6.126;2023-03-08T04:31:39;4.70;99.90
15625;DHT22;7912;51.376;6.126;2023-03-08T04:34:06;4.70;99.90
15625;DHT22;7912;51.376;6.126;2023-03-08T04:36:33;4.70;99.90
15625;DHT22;7912;51.376;6.126;2023-03-08T04:39:00;4.70;99.90
15625;DHT22;7912;51.376;6.126;2023-03-08T04:41:28;4.70;99.90
15625;DHT22;7912;51.376;6.126;2023-03-08T04:43:56;4.70;99.90
15625;DHT22;7912;51.376;6.126;2023-03-08T04:46:26;4.70;99.90
15625;DHT22;7912;51.376;6.126;2023-03-08T04:48:54;4.70;99.90
15625;DHT22;7912;51.376;6.126;2023-03-08T04:51:25;4.70;99.90
15625;DHT22;7912;51.376;6.126;2023-03-08T04:53:53;4.70;99.90
15625;DHT22;7912;51.376;6.126;2023-03-08T04:56:20;4.70;99.90
15625;DHT22;7912;51.376;6.126;2023-03-08T04:58:48;4.70;99.90
15625;DHT22;7912;51.376;6.126;2023-03-08T05:01:20;4.70;99.90
15625;DHT22;7912;51.376;6.126;2023-03-08T05:03:50;4.70;99.90
15625;DHT22;7912;51.376;6.126;2023-03-08T05:06:20;4.70;99.90
15625;DHT22;7912;51.376;6.126;2023-03-08T05:08:49;4.70;99.90
15625;DHT22;7912;51.376;6.126;2023-03-08T05:11:22;4.70;99.90
15625;DHT22;7912;51.376;6.126;2023-03-08T05:13:56;4.70;99.90
15625;DHT22;7912;51.376;6.126;2023-03-08T05:16:25;4.70;99.90
15625;DHT22;7912;51.376;6.126;2023-03-08T05:18:53;4.70;99.90
15625;DHT22;7912;51.376;6.126;2023-03-08T05:21:21;4.60;99.90
15625;DHT22;7912;51.376;6.126;2023-03-08T05:23:49;4.60;99.90
15625;DHT22;7912;51.376;6.126;2023-03-08T05:26:17;4.60;99.90
15625;DHT22;7912;51.376;6.126;2023-03-08T05:28:45;4.60;99.90
15625;DHT22;7912;51.376;6.126;2023-03-08T05:31:17;4.60;99.90
15625;DHT22;7912;51.376;6.126;2023-03-08T05:33:49;4.60;99.90
15625;DHT22;7912;51.376;6.126;2023-03-08T05:36:17;4.60;99.90
15625;DHT22;7912;51.376;6.126;2023-03-08T05:38:45;4.50;99.90
15625;DHT22;7912;51.376;6.126;2023-03-08T05:41:15;4.50;99.90
15625;DHT22;7912;51.376;6.126;2023-03-08T05:43:42;4.50;99.90
15625;DHT22;7912;51.376;6.126;2023-03-08T05:46:12;4.50;99.90
15625;DHT22;7912;51.376;6.126;2023-03-08T05:48:41;4.50;99.90
15625;DHT22;7912;51.376;6.126;2023-03-08T05:51:15;4.40;99.90
15625;DHT22;7912;51.376;6.126;2023-03-08T05:53:44;4.40;99.90
15625;DHT22;7912;51.376;6.126;2023-03-08T05:56:20;4.40;99.90
15625;DHT22;7912;51.376;6.126;2023-03-08T05:58:49;4.40;99.90
15625;DHT22;7912;51.376;6.126;2023-03-08T06:01:22;4.40;99.90
15625;DHT22;7912;51.376;6.126;2023-03-08T06:03:55;4.40;99.90
15625;DHT22;7912;51.376;6.126;2023-03-08T06:06:25;4.40;99.90
15625;DHT22;7912;51.376;6.126;2023-03-08T06:08:53;4.40;99.90
15625;DHT22;7912;51.376;6.126;2023-03-08T06:11:22;4.40;99.90
15625;DHT22;7912;51.376;6.126;2023-03-08T06:13:50;4.40;99.90
15625;DHT22;7912;51.376;6.126;2023-03-08T06:16:17;4.30;99.90
15625;DHT22;7912;51.376;6.126;2023-03-08T06:18:45;4.30;99.90
15625;DHT22;7912;51.376;6.126;2023-03-08T06:21:14;4.30;99.90
15625;DHT22;7912;51.376;6.126;2023-03-08T06:23:43;4.30;99.90
15625;DHT22;7912;51.376;6.126;2023-03-08T06:26:11;4.30;99.90
15625;DHT22;7912;51.376;6.126;2023-03-08T06:28:42;4.30;99.90
15625;DHT22;7912;51.376;6.126;2023-03-08T06:31:15;4.20;99.90
15625;DHT22;7912;51.376;6.126;2023-03-08T06:33:43;4.20;99.90
15625;DHT22;7912;51.376;6.126;2023-03-08T06:36:13;4.20;99.90
15625;DHT22;7912;51.376;6.126;2023-03-08T06:38:42;4.20;99.90
15625;DHT22;7912;51.376;6.126;2023-03-08T06:41:11;4.20;99.90
15625;DHT22;7912;51.376;6.126;2023-03-08T06:43:39;4.20;99.90
15625;DHT22;7912;51.376;6.126;2023-03-08T06:46:13;4.20;99.90
15625;DHT22;7912;51.376;6.126;2023-03-08T06:48:43;4.10;99.90
15625;DHT22;7912;51.376;6.126;2023-03-08T06:51:11;4.10;99.90
15625;DHT22;7912;51.376;6.126;2023-03-08T06:53:39;4.10;99.90
15625;DHT22;7912;51.376;6.126;2023-03-08T06:56:07;4.10;99.90
15625;DHT22;7912;51.376;6.126;2023-03-08T06:58:42;4.10;99.90
15625;DHT22;7912;51.376;6.126;2023-03-08T07:01:10;4.10;99.90
15625;DHT22;7912;51.376;6.126;2023-03-08T07:03:39;4.10;99.90
15625;DHT22;7912;51.376;6.126;2023-03-08T07:06:08;4.10;99.90
15625;DHT22;7912;51.376;6.126;2023-03-08T07:08:37;4.10;99.90
15625;DHT22;7912;51.376;6.126;2023-03-08T07:11:08;4.10;99.90
15625;DHT22;7912;51.376;6.126;2023-03-08T07:13:37;4.10;99.90
15625;DHT22;7912;51.376;6.126;2023-03-08T07:16:11;4.00;99.90
15625;DHT22;7912;51.376;6.126;2023-03-08T07:18:40;4.10;99.90
15625;DHT22;7912;51.376;6.126;2023-03-08T07:21:08;4.00;99.90
15625;DHT22;7912;51.376;6.126;2023-03-08T07:23:36;4.00;99.90
15625;DHT22;7912;51.376;6.126;2023-03-08T07:26:08;4.00;99.90
15625;DHT22;7912;51.376;6.126;2023-03-08T07:28:37;4.00;99.90
15625;DHT22;7912;51.376;6.126;2023-03-08T07:31:09;4.00;99.90
15625;DHT22;7912;51.376;6.126;2023-03-08T07:33:40;4.00;99.90
15625;DHT22;7912;51.376;6.126;2023-03-08T07:36:09;4.00;99.90
15625;DHT22;7912;51.376;6.126;2023-03-08T07:38:39;4.00;99.90
15625;DHT22;7912;51.376;6.126;2023-03-08T07:41:06;4.00;99.90
15625;DHT22;7912;51.376;6.126;2023-03-08T07:43:33;4.00;99.90
15625;DHT22;7912;51.376;6.126;2023-03-08T07:46:02;4.00;99.90
15625;DHT22;7912;51.376;6.126;2023-03-08T07:48:31;4.00;99.90
15625;DHT22;7912;51.376;6.126;2023-03-08T07:54:22;4.00;99.90
15625;DHT22;7912;51.376;6.126;2023-03-08T08:00:33;4.00;99.90
15625;DHT22;7912;51.376;6.126;2023-03-08T08:03:01;4.00;99.90
15625;DHT22;7912;51.376;6.126;2023-03-08T08:05:34;3.90;99.90
15625;DHT22;7912;51.376;6.126;2023-03-08T08:08:02;3.90;99.90
15625;DHT22;7912;51.376;6.126;2023-03-08T08:10:33;3.90;99.90
15625;DHT22;7912;51.376;6.126;2023-03-08T08:13:00;3.90;99.90
15625;DHT22;7912;51.376;6.126;2023-03-08T08:15:28;3.80;99.90
15625;DHT22;7912;51.376;6.126;2023-03-08T08:17:56;3.90;99.90
15625;DHT22;7912;51.376;6.126;2023-03-08T08:20:24;3.90;99.90
15625;DHT22;7912;51.376;6.126;2023-03-08T08:22:53;3.80;99.90
15625;DHT22;7912;51.376;6.126;2023-03-08T08:25:20;3.90;99.90
15625;DHT22;7912;51.376;6.126;2023-03-08T08:27:49;3.80;99.90
15625;DHT22;7912;51.376;6.126;2023-03-08T08:30:28;3.80;99.90
15625;DHT22;7912;51.376;6.126;2023-03-08T08:32:56;3.80;99.90
15625;DHT22;7912;51.376;6.126;2023-03-08T08:35:23;3.80;99.90
15625;DHT22;7912;51.376;6.126;2023-03-08T08:38:07;3.80;99.90
15625;DHT22;7912;51.376;6.126;2023-03-08T08:40:35;3.80;99.90
15625;DHT22;7912;51.376;6.126;2023-03-08T08:43:05;3.80;99.90
15625;DHT22;7912;51.376;6.126;2023-03-08T08:45:32;3.70;99.90
15625;DHT22;7912;51.376;6.126;2023-03-08T08:48:00;3.70;99.90
15625;DHT22;7912;51.376;6.126;2023-03-08T08:50:27;3.70;99.90
15625;DHT22;7912;51.376;6.126;2023-03-08T08:52:56;3.70;99.90
15625;DHT22;7912;51.376;6.126;2023-03-08T08:55:24;3.70;99.90
15625;DHT22;7912;51.376;6.126;2023-03-08T08:57:54;3.70;99.90
15625;DHT22;7912;51.376;6.126;2023-03-08T09:00:22;3.70;99.90
15625;DHT22;7912;51.376;6.126;2023-03-08T09:02:49;3.70;99.90
15625;DHT22;7912;51.376;6.126;2023-03-08T09:05:16;3.70;99.90
15625;DHT22;7912;51.376;6.126;2023-03-08T09:07:44;3.70;99.90
15625;DHT22;7912;51.376;6.126;2023-03-08T09:10:11;3.70;99.90
15625;DHT22;7912;51.376;6.126;2023-03-08T09:12:39;3.70;99.90
15625;DHT22;7912;51.376;6.126;2023-03-08T09:15:07;3.70;99.90
15625;DHT22;7912;51.376;6.126;2023-03-08T09:17:38;3.70;99.90
15625;DHT22;7912;51.376;6.126;2023-03-08T09:20:06;3.70;99.90
15625;DHT22;7912;51.376;6.126;2023-03-08T09:22:39;3.70;99.90
15625;DHT22;7912;51.376;6.126;2023-03-08T09:25:10;3.70;99.90
15625;DHT22;7912;51.376;6.126;2023-03-08T09:27:39;3.70;99.90
15625;DHT22;7912;51.376;6.126;2023-03-08T09:30:10;3.80;99.90
15625;DHT22;7912;51.376;6.126;2023-03-08T09:32:39;3.80;99.90
15625;DHT22;7912;51.376;6.126;2023-03-08T09:35:07;3.80;99.90
15625;DHT22;7912;51.376;6.126;2023-03-08T09:37:36;3.80;99.90
15625;DHT22;7912;51.376;6.126;2023-03-08T09:43:36;3.80;99.90
15625;DHT22;7912;51.376;6.126;2023-03-08T09:46:23;3.90;99.90
15625;DHT22;7912;51.376;6.126;2023-03-08T09:48:56;3.90;99.90
15625;DHT22;7912;51.376;6.126;2023-03-08T09:51:33;3.90;99.90
15625;DHT22;7912;51.376;6.126;2023-03-08T09:54:06;4.00;99.90
15625;DHT22;7912;51.376;6.126;2023-03-08T09:56:49;4.00;99.90
15625;DHT22;7912;51.376;6.126;2023-03-08T10:08:07;4.10;99.90
15625;DHT22;7912;51.376;6.126;2023-03-08T10:13:48;4.10;99.90
15625;DHT22;7912;51.376;6.126;2023-03-08T10:16:32;4.10;99.90
15625;DHT22;7912;51.376;6.126;2023-03-08T10:22:03;4.20;99.90
15625;DHT22;7912;51.376;6.126;2023-03-08T10:27:52;4.30;99.90
15625;DHT22;7912;51.376;6.126;2023-03-08T10:30:24;4.40;99.90
15625;DHT22;7912;51.376;6.126;2023-03-08T10:32:57;4.40;99.90
15625;DHT22;7912;51.376;6.126;2023-03-08T10:35:38;4.40;99.90
15625;DHT22;7912;51.376;6.126;2023-03-08T10:38:21;4.40;99.90
15625;DHT22;7912;51.376;6.126;2023-03-08T10:40:58;4.40;99.90
15625;DHT22;7912;51.376;6.126;2023-03-08T10:43:45;4.50;99.90
15625;DHT22;7912;51.376;6.126;2023-03-08T10:46:19;4.50;99.90
15625;DHT22;7912;51.376;6.126;2023-03-08T10:48:48;4.60;99.90
15625;DHT22;7912;51.376;6.126;2023-03-08T10:53:58;4.60;99.90
15625;DHT22;7912;51.376;6.126;2023-03-08T10:56:53;4.60;99.90
15625;DHT22;7912;51.376;6.126;2023-03-08T10:59:34;4.60;99.90
15625;DHT22;7912;51.376;6.126;2023-03-08T11:04:56;4.70;99.90
15625;DHT22;7912;51.376;6.126;2023-03-08T11:07:30;4.70;99.90
15625;DHT22;7912;51.376;6.126;2023-03-08T11:12:39;4.70;99.90
15625;DHT22;7912;51.376;6.126;2023-03-08T11:15:25;4.70;99.90
15625;DHT22;7912;51.376;6.126;2023-03-08T11:20:59;4.70;99.90
15625;DHT22;7912;51.376;6.126;2023-03-08T11:23:38;4.70;99.90
15625;DHT22;7912;51.376;6.126;2023-03-08T11:26:47;4.70;99.90
15625;DHT22;7912;51.376;6.126;2023-03-08T11:32:18;4.70;99.90
15625;DHT22;7912;51.376;6.126;2023-03-08T11:40:49;4.60;99.90
15625;DHT22;7912;51.376;6.126;2023-03-08T12:00:11;4.60;99.90
15625;DHT22;7912;51.376;6.126;2023-03-08T12:02:31;4.60;99.90
15625;DHT22;7912;51.376;6.126;2023-03-08T12:05:28;4.60;99.90
15625;DHT22;7912;51.376;6.126;2023-03-08T12:08:11;4.60;99.90
15625;DHT22;7912;51.376;6.126;2023-03-08T12:11:22;4.60;99.90
15625;DHT22;7912;51.376;6.126;2023-03-08T12:14:31;4.70;99.90
15625;DHT22;7912;51.376;6.126;2023-03-08T12:17:06;4.70;99.90
15625;DHT22;7912;51.376;6.126;2023-03-08T15:45:21;5.40;99.90
15625;DHT22;7912;51.376;6.126;2023-03-08T15:48:03;5.40;99.90
15625;DHT22;7912;51.376;6.126;2023-03-08T15:50:48;5.40;99.90
15625;DHT22;7912;51.376;6.126;2023-03-08T15:54:11;5.30;99.90
15625;DHT22;7912;51.376;6.126;2023-03-08T15:57:16;5.30;99.90
15625;DHT22;7912;51.376;6.126;2023-03-08T16:04:08;5.30;99.90
15625;DHT22;7912;51.376;6.126;2023-03-08T16:06:35;5.40;99.90
15625;DHT22;7912;51.376;6.126;2023-03-08T16:09:03;5.40;99.90
15625;DHT22;7912;51.376;6.126;2023-03-08T16:15:33;5.30;99.90
15625;DHT22;7912;51.376;6.126;2023-03-08T16:22:21;5.30;99.90
15625;DHT22;7912;51.376;6.126;2023-03-08T16:25:20;5.40;99.90
15625;DHT22;7912;51.376;6.126;2023-03-08T16:30:49;5.40;99.90
15625;DHT22;7912;51.376;6.126;2023-03-08T16:33:35;5.40;99.90
15625;DHT22;7912;51.376;6.126;2023-03-08T16:40:13;5.40;99.90
15625;DHT22;7912;51.376;6.126;2023-03-08T16:43:05;5.40;99.90
15625;DHT22;7912;51.376;6.126;2023-03-08T16:46:03;5.40;99.90
15625;DHT22;7912;51.376;6.126;2023-03-08T16:48:38;5.50;99.90
15625;DHT22;7912;51.376;6.126;2023-03-08T16:51:06;5.50;99.90
15625;DHT22;7912;51.376;6.126;2023-03-08T16:54:04;5.50;99.90
15625;DHT22;7912;51.376;6.126;2023-03-08T16:56:39;5.50;99.90
15625;DHT22;7912;51.376;6.126;2023-03-08T16:59:45;5.50;99.90
15625;DHT22;7912;51.376;6.126;2023-03-08T17:06:41;5.50;99.90
15625;DHT22;7912;51.376;6.126;2023-03-08T17:10:13;5.50;99.90
15625;DHT22;7912;51.376;6.126;2023-03-08T17:12:47;5.40;99.90
15625;DHT22;7912;51.376;6.126;2023-03-08T17:32:18;5.20;99.90
15625;DHT22;7912;51.376;6.126;2023-03-08T17:34:54;5.20;99.90
15625;DHT22;7912;51.376;6.126;2023-03-08T17:38:07;5.20;99.90
15625;DHT22;7912;51.376;6.126;2023-03-08T17:41:17;5.10;99.90
15625;DHT22;7912;51.376;6.126;2023-03-08T17:47:07;5.00;99.90
15625;DHT22;7912;51.376;6.126;2023-03-08T17:49:36;5.00;99.90
15625;DHT22;7912;51.376;6.126;2023-03-08T17:52:06;4.90;99.90
15625;DHT22;7912;51.376;6.126;2023-03-08T17:54:34;4.90;99.90
15625;DHT22;7912;51.376;6.126;2023-03-08T17:57:01;4.90;99.90
15625;DHT22;7912;51.376;6.126;2023-03-08T17:59:33;4.90;99.90
15625;DHT22;7912;51.376;6.126;2023-03-08T18:02:35;4.90;99.90
15625;DHT22;7912;51.376;6.126;2023-03-08T18:05:47;4.90;99.90
15625;DHT22;7912;51.376;6.126;2023-03-08T18:08:48;4.90;99.90
15625;DHT22;7912;51.376;6.126;2023-03-08T18:11:28;4.90;99.90
15625;DHT22;7912;51.376;6.126;2023-03-08T18:14:12;4.80;99.90
15625;DHT22;7912;51.376;6.126;2023-03-08T18:17:09;4.90;99.90
15625;DHT22;7912;51.376;6.126;2023-03-08T18:19:37;4.80;99.90
15625;DHT22;7912;51.376;6.126;2023-03-08T18:23:10;4.80;99.90
15625;DHT22;7912;51.376;6.126;2023-03-08T18:25:58;4.90;99.90
15625;DHT22;7912;51.376;6.126;2023-03-08T18:28:39;4.90;99.90
15625;DHT22;7912;51.376;6.126;2023-03-08T18:31:11;4.90;99.90
15625;DHT22;7912;51.376;6.126;2023-03-08T18:34:06;4.80;99.90
15625;DHT22;7912;51.376;6.126;2023-03-08T18:36:35;4.80;99.90
15625;DHT22;7912;51.376;6.126;2023-03-08T18:39:13;4.80;99.90
15625;DHT22;7912;51.376;6.126;2023-03-08T18:41:41;4.90;99.90
15625;DHT22;7912;51.376;6.126;2023-03-08T18:44:10;4.90;99.90
15625;DHT22;7912;51.376;6.126;2023-03-08T18:46:43;4.80;99.90
15625;DHT22;7912;51.376;6.126;2023-03-08T18:49:24;4.80;99.90
15625;DHT22;7912;51.376;6.126;2023-03-08T18:51:51;4.80;99.90
15625;DHT22;7912;51.376;6.126;2023-03-08T18:54:20;4.80;99.90
15625;DHT22;7912;51.376;6.126;2023-03-08T18:56:49;4.80;99.90
15625;DHT22;7912;51.376;6.126;2023-03-08T18:59:26;4.80;99.90
15625;DHT22;7912;51.376;6.126;2023-03-08T19:02:01;4.80;99.90
15625;DHT22;7912;51.376;6.126;2023-03-08T19:04:29;4.80;99.90
15625;DHT22;7912;51.376;6.126;2023-03-08T19:06:57;4.80;99.90
15625;DHT22;7912;51.376;6.126;2023-03-08T19:09:29;4.80;99.90
15625;DHT22;7912;51.376;6.126;2023-03-08T19:12:11;4.80;99.90
15625;DHT22;7912;51.376;6.126;2023-03-08T19:14:40;4.80;99.90
15625;DHT22;7912;51.376;6.126;2023-03-08T19:17:17;4.80;99.90
15625;DHT22;7912;51.376;6.126;2023-03-08T19:19:48;4.80;99.90
15625;DHT22;7912;51.376;6.126;2023-03-08T19:22:17;4.80;99.90
15625;DHT22;7912;51.376;6.126;2023-03-08T19:24:59;4.80;99.90
15625;DHT22;7912;51.376;6.126;2023-03-08T19:27:27;4.80;99.90
15625;DHT22;7912;51.376;6.126;2023-03-08T19:32:57;4.80;99.90
15625;DHT22;7912;51.376;6.126;2023-03-08T19:35:52;4.80;99.90
15625;DHT22;7912;51.376;6.126;2023-03-08T19:38:29;4.80;99.90
15625;DHT22;7912;51.376;6.126;2023-03-08T19:41:10;4.80;99.90
15625;DHT22;7912;51.376;6.126;2023-03-08T19:43:49;4.80;99.90
15625;DHT22;7912;51.376;6.126;2023-03-08T19:46:17;4.80;99.90
15625;DHT22;7912;51.376;6.126;2023-03-08T19:49:10;4.80;99.90
15625;DHT22;7912;51.376;6.126;2023-03-08T19:55:54;4.90;99.90
15625;DHT22;7912;51.376;6.126;2023-03-08T19:58:35;4.90;99.90
15625;DHT22;7912;51.376;6.126;2023-03-08T20:01:32;4.90;99.90
15625;DHT22;7912;51.376;6.126;2023-03-08T20:08:22;4.90;99.90
15625;DHT22;7912;51.376;6.126;2023-03-08T20:15:17;4.90;99.90
15625;DHT22;7912;51.376;6.126;2023-03-08T20:18:30;4.90;99.90
15625;DHT22;7912;51.376;6.126;2023-03-08T20:20:58;4.90;99.90
15625;DHT22;7912;51.376;6.126;2023-03-08T20:23:48;4.90;99.90
15625;DHT22;7912;51.376;6.126;2023-03-08T20:26:47;4.90;99.90
15625;DHT22;7912;51.376;6.126;2023-03-08T20:29:14;4.90;99.90
15625;DHT22;7912;51.376;6.126;2023-03-08T20:36:09;4.90;99.90
15625;DHT22;7912;51.376;6.126;2023-03-08T20:43:07;5.00;99.90
15625;DHT22;7912;51.376;6.126;2023-03-08T20:45:56;5.00;99.90
15625;DHT22;7912;51.376;6.126;2023-03-08T20:48:53;5.00;99.90
15625;DHT22;7912;51.376;6.126;2023-03-08T20:51:21;5.00;99.90
15625;DHT22;7912;51.376;6.126;2023-03-08T20:54:17;5.00;99.90
15625;DHT22;7912;51.376;6.126;2023-03-08T20:56:56;5.00;99.90
15625;DHT22;7912;51.376;6.126;2023-03-08T21:00:01;4.90;99.90
15625;DHT22;7912;51.376;6.126;2023-03-08T21:03:00;5.00;99.90
15625;DHT22;7912;51.376;6.126;2023-03-08T21:13:09;5.00;99.90
15625;DHT22;7912;51.376;6.126;2023-03-08T21:17:05;5.00;99.90
15625;DHT22;7912;51.376;6.126;2023-03-08T21:27:07;5.00;99.90
15625;DHT22;7912;51.376;6.126;2023-03-08T21:40:57;5.00;99.90
15625;DHT22;7912;51.376;6.126;2023-03-08T21:48:40;4.90;99.90
15625;DHT22;7912;51.376;6.126;2023-03-08T21:51:31;4.90;99.90
15625;DHT22;7912;51.376;6.126;2023-03-08T21:54:45;4.90;99.90
15625;DHT22;7912;51.376;6.126;2023-03-08T22:03:42;4.90;99.90
15625;DHT22;7912;51.376;6.126;2023-03-08T22:06:19;4.80;99.90
15625;DHT22;7912;51.376;6.126;2023-03-08T22:13:37;4.90;99.90
15625;DHT22;7912;51.376;6.126;2023-03-08T22:20:29;4.80;99.90
15625;DHT22;7912;51.376;6.126;2023-03-08T22:23:16;4.80;99.90
15625;DHT22;7912;51.376;6.126;2023-03-08T22:26:03;4.80;99.90
15625;DHT22;7912;51.376;6.126;2023-03-08T22:29:16;4.80;99.90
15625;DHT22;7912;51.376;6.126;2023-03-08T22:31:57;4.80;99.90
15625;DHT22;7912;51.376;6.126;2023-03-08T22:34:25;4.90;99.90
15625;DHT22;7912;51.376;6.126;2023-03-08T22:37:49;4.80;99.90
15625;DHT22;7912;51.376;6.126;2023-03-08T22:40:32;4.90;99.90
15625;DHT22;7912;51.376;6.126;2023-03-08T22:47:00;4.90;99.90
15625;DHT22;7912;51.376;6.126;2023-03-08T22:49:37;4.90;99.90
15625;DHT22;7912;51.376;6.126;2023-03-08T22:53:05;4.90;99.90
15625;DHT22;7912;51.376;6.126;2023-03-08T22:55:57;4.90;99.90
15625;DHT22;7912;51.376;6.126;2023-03-08T23:01:40;4.90;99.90
15625;DHT22;7912;51.376;6.126;2023-03-08T23:07:45;4.80;99.90
15625;DHT22;7912;51.376;6.126;2023-03-08T23:10:36;4.80;99.90
15625;DHT22;7912;51.376;6.126;2023-03-08T23:13:04;4.80;99.90
15625;DHT22;7912;51.376;6.126;2023-03-08T23:16:05;4.80;99.90
15625;DHT22;7912;51.376;6.126;2023-03-08T23:18:57;4.80;99.90
15625;DHT22;7912;51.376;6.126;2023-03-08T23:25:40;4.70;99.90
15625;DHT22;7912;51.376;6.126;2023-03-08T23:28:22;4.80;99.90
15625;DHT22;7912;51.376;6.126;2023-03-08T23:31:21;4.70;99.90
15625;DHT22;7912;51.376;6.126;2023-03-08T23:34:13;4.70;99.90
15625;DHT22;7912;51.376;6.126;2023-03-08T23:36:51;4.70;99.90
15625;DHT22;7912;51.376;6.126;2023-03-08T23:39:20;4.70;99.90